createdAt,value
2018-08-28T00:01:14.506Z,95022.55
2018-08-28T00:03:44.458Z,95028.29
2018-08-28T00:06:14.112Z,95030.45
2018-08-28T00:08:43.965Z,95021.69
2018-08-28T00:11:13.738Z,95029.36
2018-08-28T00:13:43.512Z,95022.83
2018-08-28T00:16:13.518Z,95033.89
2018-08-28T00:18:43.090Z,95029.59
2018-08-28T00:21:12.749Z,95025.77
2018-08-28T00:23:42.781Z,95030.17
2018-08-28T00:26:12.594Z,95031.80
2018-08-28T00:28:42.006Z,95034.41
2018-08-28T00:31:11.854Z,95023.06
2018-08-28T00:33:41.347Z,95024.15
2018-08-28T00:36:10.886Z,95030.52
2018-08-28T00:38:40.443Z,95036.83
2018-08-28T00:58:31.169Z,95025.89
2018-08-28T01:01:01.141Z,95020.32
2018-08-28T01:03:30.907Z,95030.05
2018-08-28T01:06:01.904Z,95035.59
2018-08-28T01:08:31.601Z,95037.91
2018-08-28T01:11:01.294Z,95043.50
2018-08-28T01:30:52.460Z,95034.54
2018-08-28T01:50:41.492Z,95036.42
2018-08-28T01:53:11.238Z,95041.95
2018-08-28T01:55:41.652Z,95029.55
2018-08-28T01:58:11.458Z,95032.30
2018-08-28T02:00:41.896Z,95031.51
2018-08-28T02:03:11.643Z,95027.03
2018-08-28T02:05:41.281Z,95032.64
2018-08-28T02:08:11.216Z,95033.44
2018-08-28T02:10:40.949Z,95044.23
2018-08-28T02:13:11.093Z,95040.61
2018-08-28T02:33:00.639Z,95028.32
2018-08-28T02:35:30.269Z,95014.37
2018-08-28T02:38:00.201Z,95020.42
2018-08-28T02:40:30.506Z,95025.41
2018-08-28T03:00:21.775Z,95052.01
2018-08-28T03:02:53.662Z,95058.03
2018-08-28T03:05:23.625Z,95055.40
2018-08-28T03:07:53.548Z,95067.82
2018-08-28T03:10:23.136Z,95067.22
2018-08-28T03:12:52.488Z,95070.36
2018-08-28T03:53:00.281Z,95112.31
2018-08-28T03:55:30.210Z,95111.28
2018-08-28T03:57:59.803Z,95108.67
2018-08-28T04:00:29.532Z,95108.67
2018-08-28T04:03:15.858Z,95114.20
2018-08-28T04:23:06.261Z,95130.48
2018-08-28T04:25:36.617Z,95125.21
2018-08-28T04:28:06.194Z,95125.98
2018-08-28T04:30:35.882Z,95122.77
2018-08-28T04:33:05.653Z,95119.38
2018-08-28T04:35:35.336Z,95115.70
2018-08-28T04:55:27.625Z,95121.16
2018-08-28T04:57:57.385Z,95124.03
2018-08-28T05:00:27.120Z,95128.14
2018-08-28T05:02:56.941Z,95126.06
2018-08-28T05:05:26.425Z,95129.45
2018-08-28T05:07:56.139Z,95132.70
2018-08-28T05:10:26.059Z,95128.47
2018-08-28T05:12:55.969Z,95131.67
2018-08-28T05:15:25.585Z,95130.11
2018-08-28T05:17:55.386Z,95127.15
2018-08-28T05:20:24.805Z,95135.30
2018-08-28T05:22:54.621Z,95138.96
2018-08-28T05:25:24.516Z,95135.19
2018-08-28T05:27:54.170Z,95127.23
2018-08-28T05:30:24.164Z,95129.17
2018-08-28T05:32:53.975Z,95121.77
2018-08-28T05:35:23.898Z,95120.96
2018-08-28T05:37:53.872Z,95130.39
2018-08-28T05:40:23.730Z,95144.84
2018-08-28T05:42:53.615Z,95133.47
2018-08-28T05:45:23.656Z,95139.50
2018-08-28T05:47:53.334Z,95136.81
2018-08-28T05:50:23.190Z,95136.30
2018-08-28T05:52:52.916Z,95137.49
2018-08-28T05:55:22.636Z,95135.88
2018-08-28T05:57:52.106Z,95134.33
2018-08-28T06:00:21.709Z,95135.64
2018-08-28T06:02:51.290Z,95137.69
2018-08-28T06:05:21.235Z,95142.88
2018-08-28T06:07:50.805Z,95147.59
2018-08-28T06:10:20.379Z,95154.65
2018-08-28T06:12:50.268Z,95150.16
2018-08-28T06:15:20.049Z,95151.13
2018-08-28T06:17:49.438Z,95157.38
2018-08-28T06:20:19.318Z,95159.57
2018-08-28T06:22:48.678Z,95157.29
2018-08-28T06:25:18.260Z,95153.83
2018-08-28T06:27:47.695Z,95145.61
2018-08-28T06:30:17.100Z,95148.47
2018-08-28T06:32:46.505Z,95156.05
2018-08-28T06:35:16.383Z,95164.69
2018-08-28T06:55:07.636Z,95167.02
2018-08-28T06:57:38.347Z,95171.50
2018-08-28T07:00:08.629Z,95172.31
2018-08-28T07:02:39.730Z,95169.67
2018-08-28T07:05:09.645Z,95172.05
2018-08-28T07:07:39.530Z,95174.41
2018-08-28T07:10:09.865Z,95178.11
2018-08-28T07:12:39.649Z,95177.36
2018-08-28T07:15:09.139Z,95186.09
2018-08-28T07:17:39.160Z,95187.20
2018-08-28T07:20:08.642Z,95189.38
2018-08-28T07:22:38.261Z,95193.42
2018-08-28T07:25:08.253Z,95192.70
2018-08-28T07:27:37.971Z,95195.55
2018-08-28T07:30:07.989Z,95196.59
2018-08-28T07:32:38.062Z,95198.42
2018-08-28T07:35:07.937Z,95204.67
2018-08-28T07:37:37.650Z,95209.66
2018-08-28T07:57:27.574Z,95216.67
2018-08-28T07:59:57.329Z,95223.29
2018-08-28T08:02:27.197Z,95218.31
2018-08-28T08:04:57.029Z,95225.62
2018-08-28T08:07:27.200Z,95219.20
2018-08-28T08:09:56.849Z,95210.00
2018-08-28T08:12:26.828Z,95208.98
2018-08-28T08:14:56.229Z,95219.76
2018-08-28T08:17:25.966Z,95214.11
2018-08-28T08:37:16.820Z,95221.50
2018-08-28T08:39:46.383Z,95218.63
2018-08-28T08:42:16.477Z,95211.72
2018-08-28T08:44:46.761Z,95209.53
2018-08-28T08:47:16.442Z,95210.80
2018-08-28T08:49:46.049Z,95203.39
2018-08-28T08:52:16.223Z,95205.41
2018-08-28T08:54:45.654Z,95201.76
2018-08-28T08:57:15.260Z,95213.16
2018-08-28T08:59:45.087Z,95204.16
2018-08-28T09:02:14.714Z,95209.66
2018-08-28T09:04:44.211Z,95211.88
2018-08-28T09:07:14.591Z,95212.31
2018-08-28T09:09:44.979Z,95204.23
2018-08-28T09:12:14.679Z,95199.65
2018-08-28T09:14:44.572Z,95201.13
2018-08-28T09:17:14.392Z,95196.50
2018-08-28T09:19:44.105Z,95193.80
2018-08-28T09:22:15.195Z,95191.14
2018-08-28T09:24:44.751Z,95195.52
2018-08-28T09:27:14.511Z,95200.20
2018-08-28T09:29:44.004Z,95192.32
2018-08-28T09:32:13.399Z,95199.32
2018-08-28T09:34:43.338Z,95206.27
2018-08-28T09:37:13.544Z,95208.67
2018-08-28T09:39:43.545Z,95220.23
2018-08-28T09:42:13.615Z,95212.09
2018-08-28T09:44:43.029Z,95208.63
2018-08-28T09:47:12.666Z,95200.53
2018-08-28T09:49:42.729Z,95212.69
2018-08-28T09:52:12.215Z,95210.08
2018-08-28T09:54:41.587Z,95208.58
2018-08-28T09:57:11.742Z,95204.60
2018-08-28T09:59:41.296Z,95204.25
2018-08-28T10:02:11.161Z,95202.38
2018-08-28T10:22:00.053Z,95195.16
2018-08-28T10:24:29.722Z,95193.04
2018-08-28T10:26:59.347Z,95181.38
2018-08-28T10:29:29.053Z,95176.63
2018-08-28T10:31:58.475Z,95184.23
2018-08-28T10:34:28.335Z,95183.95
2018-08-28T10:36:58.038Z,95176.71
2018-08-28T10:39:27.487Z,95180.06
2018-08-28T10:41:57.187Z,95168.20
2018-08-28T10:44:26.692Z,95165.72
2018-08-28T10:46:56.370Z,95161.91
2018-08-28T10:49:25.819Z,95169.05
2018-08-28T10:51:55.865Z,95159.48
2018-08-28T10:54:25.561Z,95154.73
2018-08-28T10:56:55.076Z,95155.33
2018-08-28T10:59:24.807Z,95147.31
2018-08-28T11:01:54.597Z,95146.02
2018-08-28T11:04:24.129Z,95139.34
2018-08-28T11:06:54.128Z,95138.25
2018-08-28T11:09:23.518Z,95143.36
2018-08-28T11:11:53.064Z,95136.34
2018-08-28T11:14:22.938Z,95129.16
2018-08-28T11:16:52.437Z,95138.84
2018-08-28T11:19:21.826Z,95134.64
2018-08-28T11:21:51.339Z,95131.27
2018-08-28T11:24:20.857Z,95132.86
2018-08-28T11:55:47.019Z,95092.37
2018-08-28T11:58:16.850Z,95084.79
2018-08-28T12:00:46.454Z,95087.07
2018-08-28T12:03:16.547Z,95079.54
2018-08-28T12:05:46.130Z,95080.31
2018-08-28T12:08:16.265Z,95074.19
2018-08-28T12:10:46.286Z,95078.63
2018-08-28T12:13:16.511Z,95070.98
2018-08-28T12:15:46.198Z,95074.66
2018-08-28T12:18:16.253Z,95068.98
2018-08-28T12:20:45.899Z,95069.78
2018-08-28T12:23:15.565Z,95077.15
2018-08-28T12:43:06.291Z,95073.22
2018-08-28T13:02:57.517Z,95075.78
2018-08-28T13:05:27.700Z,95072.14
2018-08-28T13:25:19.700Z,95057.30
2018-08-28T13:27:49.777Z,95058.39
2018-08-28T13:30:19.519Z,95060.82
2018-08-28T13:32:49.325Z,95056.19
2018-08-28T13:35:19.171Z,95056.70
2018-08-28T13:37:48.735Z,95056.37
2018-08-28T13:40:18.621Z,95051.08
2018-08-28T14:00:11.664Z,95072.04
2018-08-28T14:02:41.317Z,95072.27
2018-08-28T14:05:11.006Z,95068.43
2018-08-28T14:07:41.441Z,95073.95
2018-08-28T14:10:11.033Z,95071.13
2018-08-28T14:12:40.723Z,95070.97
2018-08-28T14:15:10.811Z,95071.26
2018-08-28T14:17:40.342Z,95057.13
2018-08-28T14:37:32.980Z,95066.55
2018-08-28T14:40:03.039Z,95062.70
2018-08-28T14:59:54.417Z,95066.87
2018-08-28T15:02:24.266Z,95075.58
2018-08-28T15:04:54.084Z,95070.00
2018-08-28T15:07:24.192Z,95074.52
2018-08-28T15:09:53.748Z,95065.31
2018-08-28T15:12:23.376Z,95073.53
2018-08-28T15:14:53.231Z,95073.89
2018-08-28T15:17:22.965Z,95073.89
2018-08-28T15:57:31.233Z,95095.48
2018-08-28T16:00:01.420Z,95094.17
2018-08-28T16:02:31.250Z,95090.46
2018-08-28T16:05:01.319Z,95092.67
2018-08-28T16:07:30.951Z,95102.92
2018-08-28T16:10:00.854Z,95096.97
2018-08-28T16:12:30.328Z,95103.02
2018-08-28T16:15:00.448Z,95107.17
2018-08-28T16:17:30.100Z,95104.13
2018-08-28T16:20:00.008Z,95100.57
2018-08-28T16:22:37.796Z,95110.14
2018-08-28T16:25:07.420Z,95103.98
2018-08-28T16:27:36.882Z,95117.61
2018-08-28T16:47:28.559Z,95146.36
2018-08-28T16:49:58.012Z,95148.78
2018-08-28T16:52:27.426Z,95154.13
2018-08-28T16:54:57.626Z,95160.81
2018-08-28T16:57:27.425Z,95163.44
2018-08-28T16:59:57.088Z,95157.19
2018-08-28T17:02:26.615Z,95158.93
2018-08-28T17:04:56.040Z,95167.45
2018-08-28T17:07:25.812Z,95164.89
2018-08-28T17:09:56.069Z,95162.93
2018-08-28T17:12:25.937Z,95175.69
2018-08-28T17:14:55.600Z,95177.34
2018-08-28T17:17:25.906Z,95183.70
2018-08-28T17:37:17.078Z,95201.60
2018-08-28T17:39:47.223Z,95207.63
2018-08-28T17:42:16.832Z,95205.34
2018-08-28T17:44:46.459Z,95207.25
2018-08-28T17:47:16.276Z,95206.66
2018-08-28T17:49:45.865Z,95226.27
2018-08-28T17:52:15.263Z,95225.66
2018-08-28T17:54:45.114Z,95225.20
2018-08-28T17:57:15.120Z,95229.81
2018-08-28T18:17:07.571Z,95262.44
2018-08-28T18:19:37.690Z,95266.25
2018-08-28T18:22:07.542Z,95260.44
2018-08-28T18:24:37.530Z,95261.41
2018-08-28T18:27:07.101Z,95267.19
2018-08-28T18:29:37.180Z,95269.98
2018-08-28T18:49:28.270Z,95282.45
2018-08-28T18:51:58.658Z,95290.47
2018-08-28T18:54:28.459Z,95290.37
2018-08-28T18:56:58.915Z,95291.19
2018-08-28T18:59:29.143Z,95295.06
2018-08-28T19:01:58.897Z,95292.24
2018-08-28T19:04:28.767Z,95292.06
2018-08-28T19:06:58.398Z,95288.23
2018-08-28T19:09:28.250Z,95297.98
2018-08-28T19:11:58.230Z,95301.09
2018-08-28T19:14:28.415Z,95301.62
2018-08-28T19:16:58.414Z,95296.61
2018-08-28T19:19:28.523Z,95301.77
2018-08-28T19:21:58.795Z,95293.19
2018-08-28T19:24:28.735Z,95290.42
2018-08-28T19:58:47.695Z,95298.83
2018-08-28T20:01:18.065Z,95305.03
2018-08-28T20:03:47.909Z,95299.39
2018-08-28T20:06:17.838Z,95304.23
2018-08-28T20:08:47.845Z,95300.22
2018-08-28T20:11:17.634Z,95301.78
2018-08-28T20:13:47.735Z,95301.98
2018-08-28T20:16:17.784Z,95306.36
2018-08-28T20:18:47.767Z,95307.19
2018-08-28T20:21:17.592Z,95306.78
2018-08-28T20:23:47.683Z,95307.71
2018-08-28T20:26:17.721Z,95297.27
2018-08-28T20:28:47.578Z,95297.47
2018-08-28T20:31:17.490Z,95297.09
2018-08-28T20:33:47.474Z,95305.22
2018-08-28T20:36:17.496Z,95299.12
2018-08-28T20:38:47.569Z,95304.39
2018-08-28T20:41:17.357Z,95304.64
2018-08-28T20:43:47.263Z,95304.02
2018-08-28T20:46:17.370Z,95310.02
2018-08-28T20:48:47.147Z,95316.42
2018-08-28T20:51:16.950Z,95313.92
2018-08-28T20:53:47.157Z,95314.48
2018-08-28T20:56:16.873Z,95306.55
2018-08-28T20:58:46.874Z,95313.48
2018-08-28T21:01:16.757Z,95314.69
2018-08-28T21:03:46.581Z,95315.50
2018-08-28T21:06:16.196Z,95310.64
2018-08-28T21:08:46.012Z,95306.79
2018-08-28T21:11:15.790Z,95307.76
2018-08-28T21:13:45.185Z,95315.98
2018-08-28T21:16:15.076Z,95308.53
2018-08-28T21:18:44.706Z,95310.20
2018-08-28T21:21:14.844Z,95317.25
2018-08-28T21:23:45.940Z,95313.33
2018-08-28T21:26:15.561Z,95321.78
2018-08-28T21:28:45.400Z,95306.23
2018-08-28T21:31:15.661Z,95317.36
2018-08-28T21:33:45.537Z,95317.39
2018-08-28T21:36:15.122Z,95318.30
2018-08-28T21:38:44.987Z,95308.62
2018-08-28T21:41:15.147Z,95309.73
2018-08-28T21:43:44.970Z,95307.30
2018-08-28T21:46:15.086Z,95309.23
2018-08-28T21:48:44.524Z,95299.72
2018-08-28T21:51:14.106Z,95308.84
2018-08-28T21:53:43.880Z,95301.72
2018-08-28T21:56:13.647Z,95305.14
2018-08-28T21:58:43.334Z,95304.64
2018-08-28T22:01:13.818Z,95301.72
2018-08-28T22:03:43.444Z,95300.45
2018-08-28T22:06:19.441Z,95301.52
2018-08-28T22:08:49.151Z,95307.39
2018-08-28T22:11:19.164Z,95303.98
2018-08-28T22:13:48.877Z,95300.61
2018-08-28T22:16:18.710Z,95308.88
2018-08-28T22:18:48.810Z,95315.16
2018-08-28T22:21:18.654Z,95303.98
2018-08-28T22:23:48.224Z,95303.39
2018-08-28T22:26:18.392Z,95302.55
2018-08-28T22:28:47.771Z,95306.97
2018-08-28T22:31:18.267Z,95297.25
2018-08-28T22:33:48.553Z,95295.73
2018-08-28T22:36:18.324Z,95305.83
2018-08-28T22:38:47.919Z,95299.39
2018-08-28T22:41:18.083Z,95300.75
2018-08-28T22:43:47.922Z,95298.76
2018-08-28T22:46:17.493Z,95301.14
2018-08-28T22:48:47.634Z,95300.50
2018-08-28T22:51:17.130Z,95299.16
2018-08-28T22:53:46.952Z,95296.22
2018-08-28T22:56:16.966Z,95297.33
2018-08-28T22:58:46.541Z,95292.03
2018-08-28T23:01:16.444Z,95293.67
2018-08-28T23:03:46.375Z,95295.30
2018-08-28T23:06:16.042Z,95294.77
2018-08-28T23:08:45.554Z,95291.81
2018-08-28T23:11:15.780Z,95287.86
2018-08-28T23:13:45.523Z,95288.10
2018-08-28T23:16:15.237Z,95285.53
2018-08-28T23:18:45.273Z,95278.17
2018-08-28T23:21:15.722Z,95283.78
2018-08-28T23:23:45.350Z,95292.46
2018-08-28T23:26:15.161Z,95288.02
2018-08-28T23:28:44.886Z,95285.63
2018-08-28T23:31:14.313Z,95288.06
2018-08-28T23:33:46.027Z,95290.16
2018-08-28T23:36:15.760Z,95287.75
2018-08-28T23:38:45.439Z,95286.93
2018-08-28T23:41:15.254Z,95293.33
2018-08-28T23:43:44.837Z,95292.73
2018-08-28T23:46:14.862Z,95292.52
2018-08-28T23:48:44.589Z,95297.50
2018-08-28T23:51:14.264Z,95289.27
2018-08-28T23:53:44.298Z,95281.85
2018-08-28T23:56:13.675Z,95291.21
2018-08-28T23:58:43.038Z,95295.77
